Terminal Aerodrome Forecast
Issued by NWS Grand Forks, ND

Home | Current Version | Previous Version | Text Only | Print | Product List | Glossary Off
Versions: 1 2 3 4 5 6 7 8 9 10 11 12 13 14 15 16 17 18 19 20

298
FTUS43 KFGF 190615 AAA
TAFGFK
TAF AMD
KGFK 190615Z 1906/2006 01016G25KT P6SM BKN013
     FM190800 36014KT P6SM BKN020
     FM191000 36012KT P6SM BKN035
     FM191400 36014G21KT P6SM SCT200
     FM200000 35006KT P6SM SKC=

USA.gov is the U.S. government's official web portal to all federal, state and local government web resources and services.